| Date | Temp | Humidity | Rainfall | Dew Point | Wind Direction | Wind Speed | Wind Pressure | Condition | Visibility |
|---|---|---|---|---|---|---|---|---|---|
| 2025-02-26 22:01:16 | 27 | 87 | 25 | 060 | 11.4 | 1014 | Lightning | 10 KM | |
| 2025-02-26 21:01:10 | 27 | 87 | 25 | 040 | 15.2 | 1013 | Night Shower | 10KM | |
| 2025-02-26 20:03:49 | 27 | 86 | 25 | 040 | 9.5 | 1012 | Night Shower | 9KM | |
| 2025-02-26 19:01:50 | 27 | 85 | 25 | 040 | 17.1 | 1012 | Night Shower | 10KM | |
| 2025-02-26 18:01:27 | 28 | 83 | 24 | 010 | 9.5 | 1011 | Cloudy | 10KM | |
| 2025-02-26 17:00:36 | 29 | 73 | 0 | 23 | 010 | 20.9 | 1011 | Cloudy | 20 KM |
| 2025-02-26 15:59:22 | 29 | 75 | 0 | 24 | 360 | 17.1 | 1011 | Partly Cloudy (Day) | 20 KM |
| 2025-02-26 15:00:08 | 28 | 79 | 0 | 24 | 010 | 13.3 | 1011 | Partly Cloudy (Day) | 20 KM |
| 2025-02-26 13:58:49 | 29 | 80 | 0 | 25 | 020 | 11.4 | 1012 | Showers | 10 KM |
| 2025-02-26 12:59:07 | 28 | 79 | 24 | 350 | 11.4 | 1013 | Showers | 15 KM | |
| 2025-02-26 12:00:17 | 29 | 78 | 25 | 080 | 5.7 | 1014 | Cloudy | 20 KM | |
| 2025-02-26 11:02:40 | 28 | 78 | 24 | 060 | 5.7 | 1015 | Shower Day | 15 KM | |
| 2025-02-26 10:01:53 | 28 | 81 | 24 | 120 | 3.8 | 1015 | Shower Day | 10 km | |
| 2025-02-26 09:02:13 | 26 | 92 | 25 | 140 | 3.8 | 1015 | Shower Day | 10 km | |
| 2025-02-26 08:00:22 | 26 | 93 | 0.00 | 24 | 140 | 1.9 | 1014 | Partly Cloudy (Night) | 15 km |
| 2025-02-26 06:59:22 | 25 | 96 | 0.00 | 24 | 250 | 1.9 | 1013 | Partly Cloudy (Day) | 10 km |
| 2025-02-26 05:58:21 | 25 | 97 | 0.00 | 24 | 200 | 1.9 | 1012 | Partly Cloudy (Day) | 10 km |
| 2025-02-26 05:00:29 | 25 | 96 | 0.0 | 25 | 210 | 7.6 | 1012 | Partly Cloudy (Night) | 10 |
| 2025-02-26 04:28:26 | 25 | 97 | 0.00 | 25 | 200 | 3.8 | 1012 | Partly Cloudy (Night) | 10 km |
| 2025-02-26 03:58:34 | 25 | 97 | 0.0 | 25 | 160 | 5.7 | 1012 | Partly Cloudy (Night) | 10 km |
| 2025-02-26 02:59:24 | 25 | 96 | 0.0 | 25 | 180 | 7.6 | 1012 | Partly Cloudy (Night) | 10 km |
| 2025-02-26 01:59:48 | 26 | 97 | 0.00 | 25 | 080 | 1.9 | 1012 | Partly Cloudy (Night) | 10KM |
| 2025-02-26 01:00:18 | 26 | 94 | 0.00 | 25 | 050 | 5.7 | 1013 | Partly Cloudy (Night) | 10KM |
| 2025-02-26 00:00:06 | 26 | 93 | 0.00 | 25 | 040 | 5.7 | 1014 | Partly Cloudy (Night) | 10KM |
| 2025-02-25 23:01:26 | 26 | 96 | 0.00 | 25 | 300 | 1.9 | 1014 | Lightning | 10KM |